TimeNZDT,TemperatureF,Dew PointF,Humidity,Sea Level PressureIn,VisibilityMPH,Wind Direction,Wind SpeedMPH,Gust SpeedMPH,PrecipitationIn,Events,Conditions,WindDirDegrees,DateUTC
12:00 AM,39.2,37.4,93,29.59,6.2,West,8.1,-,N/A,Rain,Light Rain,260,2013-10-08 11:00:00
12:30 AM,39.2,37.4,93,29.59,5.0,West,6.9,-,N/A,Rain,Light Rain,260,2013-10-08 11:30:00
1:00 AM,37.4,37.4,100,29.59,6.2,WSW,10.4,-,N/A,Rain,Light Rain,250,2013-10-08 12:00:00
1:30 AM,37.4,37.4,100,29.59,6.2,WSW,9.2,-,N/A,Rain,Light Rain,250,2013-10-08 12:30:00
2:00 AM,39.2,37.4,93,29.59,6.2,WSW,10.4,-,N/A,,Light Drizzle,250,2013-10-08 13:00:00
2:30 AM,39.2,37.4,93,29.59,3.1,WSW,10.4,-,N/A,Rain,Light Rain Showers,250,2013-10-08 13:30:00
3:00 AM,39.2,37.4,93,29.59,3.1,WSW,10.4,-,N/A,Rain,Light Rain,250,2013-10-08 14:00:00
3:30 AM,39.2,39.2,100,29.59,5.6,WSW,8.1,-,N/A,Rain,Light Rain,250,2013-10-08 14:30:00
4:00 AM,39.2,39.2,100,29.59,6.2,WSW,9.2,-,N/A,Rain,Light Rain,250,2013-10-08 15:00:00
4:30 AM,41.0,39.2,93,29.59,6.2,WSW,8.1,-,N/A,Rain,Light Rain,250,2013-10-08 15:30:00
5:00 AM,41.0,39.2,93,29.59,6.2,WSW,9.2,-,N/A,Rain,Light Rain,250,2013-10-08 16:00:00
5:30 AM,41.0,39.2,93,29.59,6.2,WSW,8.1,-,N/A,Rain,Light Rain,250,2013-10-08 16:30:00
6:00 AM,41.0,39.2,93,29.59,6.2,WSW,9.2,-,N/A,Rain,Light Rain,240,2013-10-08 17:00:00
6:30 AM,42.8,39.2,87,29.59,6.2,SSW,11.5,-,N/A,,Drizzle,210,2013-10-08 17:30:00
7:00 AM,42.8,41.0,93,29.59,6.2,SSW,10.4,-,N/A,,Light Drizzle,210,2013-10-08 18:00:00
7:30 AM,42.8,41.0,93,29.62,6.2,SW,8.1,-,N/A,Rain,Light Rain,220,2013-10-08 18:30:00
8:00 AM,42.8,41.0,93,29.62,6.2,WSW,8.1,-,N/A,Rain,Light Rain,250,2013-10-08 19:00:00
8:30 AM,41.0,41.0,100,29.65,5.0,West,9.2,-,N/A,Rain,Light Rain,260,2013-10-08 19:30:00
9:00 AM,42.8,41.0,93,29.65,6.2,WSW,10.4,-,N/A,Rain,Light Rain,250,2013-10-08 20:00:00
9:30 AM,42.8,41.0,93,29.65,6.2,WSW,11.5,-,N/A,Rain,Light Rain,240,2013-10-08 20:30:00
10:00 AM,44.6,41.0,87,29.65,6.2,WSW,9.2,-,N/A,Rain,Light Rain Showers,250,2013-10-08 21:00:00
10:30 AM,44.6,41.0,87,29.65,6.2,SSW,12.7,-,N/A,Rain,Light Rain,210,2013-10-08 21:30:00
11:00 AM,46.4,39.2,76,29.68,6.2,SSW,16.1,-,N/A,Rain,Light Rain Showers,200,2013-10-08 22:00:00
11:30 AM,44.6,41.0,87,29.68,6.2,SW,12.7,-,N/A,,Light Drizzle,230,2013-10-08 22:30:00
12:00 PM,44.6,39.2,81,29.68,6.2,SSW,17.3,-,N/A,Rain,Light Rain Showers,210,2013-10-08 23:00:00
12:30 PM,46.4,41.0,81,29.68,6.2,SSW,12.7,-,N/A,Rain,Light Rain,210,2013-10-08 23:30:00
1:00 PM,46.4,41.0,81,29.68,6.2,SSW,12.7,-,N/A,Rain,Light Rain,200,2013-10-09 00:00:00
1:30 PM,46.4,41.0,81,29.68,6.2,SSW,20.7,-,N/A,Rain,Light Rain,200,2013-10-09 00:30:00
2:00 PM,46.4,41.0,81,29.68,6.2,SSW,17.3,-,N/A,Rain,Light Rain,210,2013-10-09 01:00:00
2:30 PM,48.2,39.2,71,29.68,6.2,SSW,17.3,-,N/A,,Mostly Cloudy,200,2013-10-09 01:30:00
3:00 PM,48.2,39.2,71,29.68,6.2,SSW,13.8,-,N/A,Rain,Light Rain Showers,210,2013-10-09 02:00:00
3:30 PM,48.2,37.4,66,29.68,6.2,SSW,18.4,-,N/A,,Mostly Cloudy,200,2013-10-09 02:30:00
4:00 PM,44.6,37.4,76,29.68,6.2,SW,19.6,-,N/A,Rain,Light Rain Showers,220,2013-10-09 03:00:00
4:30 PM,46.4,37.4,71,29.68,6.2,SSW,16.1,-,N/A,,Scattered Clouds,200,2013-10-09 03:30:00
5:00 PM,46.4,37.4,71,29.68,6.2,SSW,12.7,-,N/A,,Unknown,210,2013-10-09 04:00:00
5:30 PM,46.4,37.4,71,29.71,6.2,South,13.8,-,N/A,,Scattered Clouds,190,2013-10-09 04:30:00
6:00 PM,46.4,37.4,71,29.71,6.2,SW,8.1,-,N/A,,Partly Cloudy,230,2013-10-09 05:00:00
6:30 PM,44.6,37.4,76,29.71,6.2,SW,10.4,-,N/A,,Unknown,230,2013-10-09 05:30:00
7:00 PM,44.6,37.4,76,29.71,6.2,SW,6.9,-,N/A,,Unknown,230,2013-10-09 06:00:00
7:30 PM,44.6,37.4,76,29.71,6.2,WSW,5.8,-,N/A,,Unknown,240,2013-10-09 06:30:00
8:00 PM,42.8,37.4,81,29.71,6.2,West,3.5,-,N/A,,Unknown,260,2013-10-09 07:00:00
8:30 PM,42.8,37.4,81,29.71,6.2,West,4.6,-,N/A,,Unknown,270,2013-10-09 07:30:00
9:00 PM,41.0,37.4,87,29.71,6.2,WNW,4.6,-,N/A,,Unknown,290,2013-10-09 08:00:00
9:30 PM,41.0,35.6,81,29.71,6.2,WNW,5.8,-,N/A,,Unknown,290,2013-10-09 08:30:00
10:00 PM,39.2,35.6,87,29.71,6.2,WNW,4.6,-,N/A,,Unknown,290,2013-10-09 09:00:00
10:30 PM,39.2,35.6,87,29.71,6.2,West,4.6,-,N/A,,Unknown,280,2013-10-09 09:30:00
11:00 PM,37.4,35.6,93,29.71,6.2,West,5.8,-,N/A,,Unknown,280,2013-10-09 10:00:00
11:30 PM,37.4,35.6,93,29.71,6.2,West,5.8,-,N/A,,Unknown,280,2013-10-09 10:30:00